Time;durP1;ratioP1;P1;durP2;ratioP2;P2;SDS_P1;SDS_P2;PMS_P1;PMS_P2;Temp;Humidity;BMP_temperature;BMP_pressure;BME280_temperature;BME280_humidity;BME280_pressure;Samples;Min_cycle;Max_cycle;Signal;HPM_P1;HPM_P2
2023/06/13 00:01:16;;;;;;;1.47;0.90;;;21.30;66.80;;;;;;4981775;28;20490;-81
2023/06/13 00:03:47;;;;;;;1.43;0.90;;;21.30;67.00;;;;;;4981515;28;20477;-80
2023/06/13 00:06:15;;;;;;;1.40;0.90;;;21.20;66.90;;;;;;4985037;28;20508;-79
2023/06/13 00:08:42;;;;;;;1.43;0.90;;;21.20;67.20;;;;;;4982242;28;20457;-79
2023/06/13 00:11:10;;;;;;;1.43;0.90;;;21.20;67.10;;;;;;4984115;28;22405;-81
2023/06/13 00:13:39;;;;;;;1.47;0.90;;;21.10;68.00;;;;;;4982133;28;20531;-79
2023/06/13 00:16:07;;;;;;;1.43;0.90;;;21.10;67.80;;;;;;4982011;28;20843;-79
2023/06/13 00:18:37;;;;;;;1.50;0.90;;;21.10;68.10;;;;;;4982355;28;20475;-78
2023/06/13 00:21:06;;;;;;;1.40;0.90;;;21.00;68.30;;;;;;4981255;28;20737;-78
2023/06/13 00:23:33;;;;;;;1.43;0.90;;;21.00;68.70;;;;;;4979591;28;20491;-81
2023/06/13 00:25:59;;;;;;;1.40;0.90;;;20.90;68.80;;;;;;4986687;28;20460;-80
2023/06/13 00:28:27;;;;;;;1.40;0.90;;;20.90;68.90;;;;;;4979134;28;20468;-81
2023/06/13 00:30:54;;;;;;;1.47;0.93;;;20.80;69.20;;;;;;4986193;28;20497;-81
2023/06/13 00:33:21;;;;;;;1.50;0.90;;;20.70;69.10;;;;;;4986701;28;20488;-79
2023/06/13 00:35:48;;;;;;;1.47;0.90;;;20.60;69.30;;;;;;4988631;28;20520;-80
2023/06/13 00:38:14;;;;;;;1.40;0.90;;;20.60;69.40;;;;;;4981282;28;20479;-80
2023/06/13 00:40:41;;;;;;;1.47;0.90;;;20.50;69.70;;;;;;4999928;28;20874;-79
2023/06/13 00:43:08;;;;;;;1.50;0.90;;;20.50;69.50;;;;;;4995363;28;20994;-80
2023/06/13 00:45:36;;;;;;;1.43;0.90;;;20.50;69.90;;;;;;5000972;28;20469;-79
2023/06/13 00:48:05;;;;;;;1.43;0.90;;;20.40;69.40;;;;;;4994456;28;20476;-80
2023/06/13 00:50:34;;;;;;;1.47;0.90;;;20.40;69.50;;;;;;4999157;28;20466;-78
2023/06/13 00:53:03;;;;;;;1.50;0.90;;;20.40;69.70;;;;;;4969965;28;20494;-78
2023/06/13 00:55:31;;;;;;;1.43;0.90;;;20.40;69.60;;;;;;5005235;28;20460;-81
2023/06/13 00:58:06;;;;;;;1.43;0.90;;;20.30;70.10;;;;;;4968846;28;20501;-80
2023/06/13 01:00:33;;;;;;;1.47;0.90;;;20.30;70.20;;;;;;5001948;28;20495;-79
2023/06/13 01:03:07;;;;;;;1.43;0.90;;;20.20;70.60;;;;;;4970810;28;20507;-81
2023/06/13 01:05:33;;;;;;;1.43;0.90;;;20.20;70.70;;;;;;5000013;28;20495;-79
2023/06/13 01:08:02;;;;;;;1.50;0.90;;;20.20;70.70;;;;;;4969013;28;20525;-78
2023/06/13 01:10:32;;;;;;;1.43;0.90;;;20.10;70.90;;;;;;5002604;28;20452;-78
2023/06/13 01:13:04;;;;;;;1.47;0.90;;;20.10;70.90;;;;;;4970766;28;20489;-78
2023/06/13 01:15:34;;;;;;;1.43;0.90;;;20.00;70.90;;;;;;5002650;28;20463;-79
2023/06/13 01:18:07;;;;;;;1.47;0.90;;;20.00;71.40;;;;;;4996262;28;20587;-80
2023/06/13 01:20:35;;;;;;;1.43;0.90;;;20.00;71.20;;;;;;4999927;28;20858;-80
2023/06/13 01:23:16;;;;;;;1.40;0.90;;;20.00;70.90;;;;;;4973621;28;20501;-79
2023/06/13 01:25:57;;;;;;;1.43;0.90;;;19.90;71.20;;;;;;5007579;28;20460;-83
2023/06/13 01:28:26;;;;;;;1.50;0.90;;;19.90;71.80;;;;;;4974229;28;20508;-79
2023/06/13 01:30:55;;;;;;;1.43;0.90;;;19.80;71.80;;;;;;4996605;28;20916;-79
2023/06/13 01:33:23;;;;;;;1.50;0.90;;;19.80;72.00;;;;;;4984045;28;20485;-81
2023/06/13 01:35:50;;;;;;;1.47;0.90;;;19.70;72.60;;;;;;4994794;28;20466;-81
2023/06/13 01:38:17;;;;;;;1.47;0.90;;;19.70;72.60;;;;;;4974050;28;20472;-79
2023/06/13 01:40:43;;;;;;;1.43;0.90;;;19.60;73.40;;;;;;5003187;28;21027;-80
2023/06/13 01:43:10;;;;;;;1.40;0.97;;;19.60;72.60;;;;;;4995795;28;20492;-79
2023/06/13 01:45:38;;;;;;;1.43;0.90;;;19.50;73.90;;;;;;5004514;28;20460;-80
2023/06/13 01:48:11;;;;;;;1.47;0.90;;;19.50;73.50;;;;;;4988689;28;20477;-83
2023/06/13 01:50:47;;;;;;;1.47;0.90;;;19.40;73.60;;;;;;5007061;28;20468;-81
2023/06/13 01:53:23;;;;;;;1.40;0.90;;;19.40;74.00;;;;;;4973587;28;20473;-81
2023/06/13 01:55:55;;;;;;;1.47;0.90;;;19.30;73.80;;;;;;4997830;28;20459;-82
2023/06/13 01:58:25;;;;;;;1.50;1.00;;;19.30;73.90;;;;;;4986404;28;20460;-81
2023/06/13 02:00:55;;;;;;;1.43;0.90;;;19.20;73.80;;;;;;4991860;28;20480;-78
2023/06/13 02:03:23;;;;;;;1.47;0.90;;;19.20;74.00;;;;;;4989396;28;20904;-82
2023/06/13 02:05:50;;;;;;;1.43;0.90;;;19.20;73.90;;;;;;4994496;28;20467;-80
2023/06/13 02:08:17;;;;;;;1.40;0.90;;;19.10;74.60;;;;;;4986501;28;20971;-80
2023/06/13 02:10:44;;;;;;;1.50;1.00;;;19.10;75.00;;;;;;4998795;28;21097;-80
2023/06/13 02:13:11;;;;;;;1.47;0.90;;;19.10;74.60;;;;;;4984712;28;20484;-79
2023/06/13 02:15:38;;;;;;;1.43;0.90;;;19.00;75.00;;;;;;5008733;28;20456;-82
2023/06/13 02:18:07;;;;;;;1.47;0.90;;;19.00;75.40;;;;;;4977805;28;20497;-78
2023/06/13 02:20:34;;;;;;;1.40;0.90;;;18.90;76.00;;;;;;4999298;28;20488;-78
2023/06/13 02:23:03;;;;;;;1.47;1.00;;;18.90;76.20;;;;;;4971745;28;20500;-79
2023/06/13 02:25:29;;;;;;;1.43;0.90;;;18.80;76.70;;;;;;5004822;28;20460;-81
2023/06/13 02:27:56;;;;;;;1.43;0.90;;;18.80;76.90;;;;;;4974263;28;20483;-78
2023/06/13 02:30:23;;;;;;;1.47;0.90;;;18.70;77.30;;;;;;5003104;28;20932;-78
2023/06/13 02:32:50;;;;;;;1.43;0.90;;;18.70;77.90;;;;;;4976380;28;20564;-78
2023/06/13 02:35:22;;;;;;;1.47;0.90;;;18.60;78.20;;;;;;5001741;28;20851;-77
2023/06/13 02:37:50;;;;;;;1.43;0.90;;;18.50;78.20;;;;;;4991201;28;20471;-81
2023/06/13 02:40:18;;;;;;;1.43;1.00;;;18.50;79.10;;;;;;5003711;28;20453;-79
2023/06/13 02:42:47;;;;;;;1.47;0.90;;;18.50;78.90;;;;;;4991249;28;20574;-79
2023/06/13 02:45:14;;;;;;;1.40;0.90;;;18.50;78.30;;;;;;5002137;28;20464;-79
2023/06/13 02:47:41;;;;;;;1.40;0.90;;;18.50;79.00;;;;;;4995790;28;20508;-83
2023/06/13 02:50:09;;;;;;;1.47;0.90;;;18.40;79.20;;;;;;5003148;28;20480;-80
2023/06/13 02:52:37;;;;;;;1.50;1.00;;;18.40;79.70;;;;;;4974133;28;20516;-76
2023/06/13 02:55:07;;;;;;;1.47;0.90;;;18.30;79.60;;;;;;4997467;28;20457;-82
2023/06/13 02:57:34;;;;;;;1.40;0.90;;;18.30;80.20;;;;;;4981097;28;20496;-79
2023/06/13 03:00:00;;;;;;;1.43;1.00;;;18.20;80.30;;;;;;5001165;28;20462;-79
2023/06/13 03:02:27;;;;;;;1.43;0.90;;;18.20;80.60;;;;;;4976131;28;20476;-79
2023/06/13 03:04:55;;;;;;;1.50;1.00;;;18.20;80.70;;;;;;5001115;28;20460;-79
2023/06/13 03:07:23;;;;;;;1.50;1.00;;;18.10;81.20;;;;;;4979250;28;20959;-79
2023/06/13 03:09:51;;;;;;;1.43;0.90;;;18.10;81.40;;;;;;4998484;28;20534;-81
2023/06/13 03:12:18;;;;;;;1.47;0.90;;;18.00;82.10;;;;;;4978433;28;20565;-77
2023/06/13 03:14:45;;;;;;;1.50;0.90;;;18.00;82.00;;;;;;5000596;28;20846;-80
2023/06/13 03:17:12;;;;;;;1.50;1.00;;;17.90;81.90;;;;;;4979298;28;20481;-81
2023/06/13 03:19:38;;;;;;;1.47;0.90;;;17.90;82.40;;;;;;4997703;28;20468;-80
2023/06/13 03:22:06;;;;;;;1.43;1.00;;;17.80;82.20;;;;;;4976509;28;20497;-79
2023/06/13 03:24:35;;;;;;;1.43;1.00;;;17.80;82.40;;;;;;4992633;28;20495;-81
2023/06/13 03:27:04;;;;;;;1.50;1.00;;;17.80;82.50;;;;;;4979950;28;20980;-78
2023/06/13 03:29:30;;;;;;;1.40;0.90;;;17.80;83.20;;;;;;4992264;28;20504;-79
2023/06/13 03:31:57;;;;;;;1.47;0.97;;;17.70;83.60;;;;;;4977750;28;21229;-82
2023/06/13 03:34:26;;;;;;;1.43;0.97;;;17.70;83.00;;;;;;4993985;28;20770;-81
2023/06/13 03:36:52;;;;;;;1.43;1.00;;;17.70;82.60;;;;;;4983093;28;20650;-81
2023/06/13 03:39:19;;;;;;;1.40;0.90;;;17.70;83.10;;;;;;4989797;28;20461;-80
2023/06/13 03:41:46;;;;;;;1.47;1.00;;;17.70;83.10;;;;;;4983332;28;20634;-79
2023/06/13 03:44:14;;;;;;;1.50;1.00;;;17.60;83.70;;;;;;4993997;28;20496;-81
2023/06/13 03:46:41;;;;;;;1.43;0.90;;;17.70;84.00;;;;;;4978361;28;20478;-79
2023/06/13 03:49:08;;;;;;;1.47;1.00;;;17.60;83.90;;;;;;4988018;28;20831;-78
2023/06/13 03:51:36;;;;;;;1.50;1.00;;;17.70;83.40;;;;;;4981571;28;20489;-79
2023/06/13 03:54:02;;;;;;;1.50;1.00;;;17.70;83.70;;;;;;4987062;28;20492;-78
2023/06/13 03:56:29;;;;;;;1.50;1.00;;;17.70;84.30;;;;;;4984487;28;20488;-78
2023/06/13 03:58:56;;;;;;;1.43;0.90;;;17.70;84.90;;;;;;4989899;28;20825;-79
2023/06/13 04:01:24;;;;;;;1.50;0.90;;;17.70;84.00;;;;;;4989359;28;20561;-79
2023/06/13 04:03:51;;;;;;;1.43;1.00;;;17.70;84.50;;;;;;4999096;28;20851;-81
2023/06/13 04:06:17;;;;;;;1.40;0.90;;;17.70;85.10;;;;;;4984981;28;20490;-78
2023/06/13 04:08:44;;;;;;;1.50;1.00;;;17.70;86.30;;;;;;4984837;28;20475;-77
2023/06/13 04:11:11;;;;;;;1.47;1.00;;;17.70;85.00;;;;;;4991108;28;20500;-78
2023/06/13 04:13:38;;;;;;;1.47;1.00;;;17.70;85.20;;;;;;4985864;28;20476;-80
2023/06/13 04:16:05;;;;;;;1.50;1.00;;;17.70;85.20;;;;;;4989692;28;20834;-77
2023/06/13 04:18:33;;;;;;;1.50;0.90;;;17.70;86.10;;;;;;4989536;28;20459;-83
2023/06/13 04:21:00;;;;;;;1.47;0.90;;;17.70;85.50;;;;;;4993952;28;20457;-78
2023/06/13 04:23:27;;;;;;;1.50;1.00;;;17.80;86.30;;;;;;5008619;28;21402;-79
2023/06/13 04:25:54;;;;;;;1.50;1.10;;;17.80;85.30;;;;;;4993704;28;20457;-78
2023/06/13 04:28:22;;;;;;;1.50;0.90;;;17.80;86.20;;;;;;4976475;28;20548;-79
2023/06/13 04:30:51;;;;;;;1.50;0.90;;;17.90;84.60;;;;;;4993032;28;20484;-78
2023/06/13 04:33:18;;;;;;;1.50;0.90;;;17.90;85.30;;;;;;4986260;28;20516;-78
2023/06/13 04:35:48;;;;;;;1.47;0.90;;;17.90;84.20;;;;;;5003802;28;20896;-77
2023/06/13 04:38:16;;;;;;;1.47;0.90;;;18.00;84.20;;;;;;4971130;28;20987;-79
2023/06/13 04:40:43;;;;;;;1.40;0.93;;;18.10;83.50;;;;;;5002858;28;20488;-79
2023/06/13 04:43:14;;;;;;;1.50;0.90;;;18.20;83.90;;;;;;4978955;28;20491;-84
2023/06/13 04:45:42;;;;;;;1.47;1.00;;;18.30;83.30;;;;;;5015874;28;20469;-80
2023/06/13 04:48:09;;;;;;;1.40;0.90;;;18.40;83.90;;;;;;4971854;28;20491;-79
2023/06/13 04:50:37;;;;;;;1.50;0.90;;;18.60;83.50;;;;;;5009061;28;20898;-80
2023/06/13 04:53:07;;;;;;;1.43;0.90;;;18.70;83.80;;;;;;4969856;28;20585;-80
2023/06/13 04:55:35;;;;;;;1.43;0.90;;;18.90;82.90;;;;;;5006445;28;20516;-79
2023/06/13 04:58:02;;;;;;;1.47;0.90;;;19.10;82.90;;;;;;4978043;28;20517;-83
2023/06/13 05:00:29;;;;;;;1.43;0.97;;;19.20;82.40;;;;;;5012141;28;20543;-80
2023/06/13 05:02:56;;;;;;;1.50;1.00;;;19.40;81.50;;;;;;4979123;28;20569;-77
2023/06/13 05:05:23;;;;;;;1.47;0.90;;;19.60;81.80;;;;;;5012314;28;20459;-79
2023/06/13 05:07:55;;;;;;;1.47;0.90;;;19.80;80.60;;;;;;4977679;28;20517;-79
2023/06/13 05:10:24;;;;;;;2.23;2.03;;;20.00;80.10;;;;;;5011844;28;20452;-83
2023/06/13 05:12:51;;;;;;;1.50;1.10;;;20.30;79.60;;;;;;4970589;28;20548;-79
2023/06/13 05:15:19;;;;;;;1.47;0.90;;;20.50;77.60;;;;;;5014724;28;20568;-80
2023/06/13 05:17:46;;;;;;;1.50;1.00;;;20.60;76.10;;;;;;4974693;28;20490;-78
2023/06/13 05:20:14;;;;;;;1.50;0.90;;;20.70;76.50;;;;;;5011478;28;20463;-80
2023/06/13 05:22:41;;;;;;;1.50;1.00;;;20.80;76.90;;;;;;4973810;28;20534;-80
2023/06/13 05:25:09;;;;;;;1.47;0.90;;;20.90;76.10;;;;;;5011005;28;20475;-78
2023/06/13 05:27:37;;;;;;;1.50;0.90;;;21.00;76.10;;;;;;4965136;28;20490;-75
2023/06/13 05:30:06;;;;;;;1.47;0.90;;;21.20;75.50;;;;;;5000393;28;20998;-82
2023/06/13 05:32:33;;;;;;;1.50;0.90;;;21.30;74.90;;;;;;4978432;28;20487;-80
2023/06/13 05:35:00;;;;;;;1.43;0.90;;;21.40;75.70;;;;;;5005022;28;20958;-79
2023/06/13 05:37:28;;;;;;;1.47;0.90;;;21.60;74.90;;;;;;4978607;28;20540;-78
2023/06/13 05:39:55;;;;;;;1.43;0.90;;;21.80;73.80;;;;;;5001614;28;20465;-79
2023/06/13 05:42:22;;;;;;;1.50;0.90;;;21.90;74.00;;;;;;4981268;28;20486;-84
2023/06/13 05:44:50;;;;;;;1.50;1.20;;;22.00;73.80;;;;;;4999783;28;20886;-83
2023/06/13 05:47:16;;;;;;;1.43;0.90;;;21.90;74.40;;;;;;4976409;28;20487;-79
2023/06/13 05:49:43;;;;;;;1.50;0.97;;;22.00;74.20;;;;;;4999238;28;20469;-81
2023/06/13 05:52:10;;;;;;;1.50;0.90;;;21.90;73.70;;;;;;4985401;28;20480;-80
2023/06/13 05:54:37;;;;;;;1.47;0.90;;;22.00;74.80;;;;;;4997344;28;20464;-80
2023/06/13 05:57:04;;;;;;;1.47;0.90;;;22.10;73.70;;;;;;4976009;28;20477;-81
2023/06/13 05:59:31;;;;;;;1.50;1.00;;;22.10;74.10;;;;;;4986014;28;20506;-78
2023/06/13 06:01:59;;;;;;;12.70;2.80;;;22.10;74.40;;;;;;4979375;28;20488;-77
2023/06/13 06:04:26;;;;;;;1.47;1.00;;;22.20;74.20;;;;;;4993085;28;20552;-77
2023/06/13 06:06:53;;;;;;;1.53;1.07;;;22.30;73.60;;;;;;4979474;28;20494;-77
2023/06/13 06:09:20;;;;;;;1.50;1.00;;;22.50;73.50;;;;;;4989624;28;20468;-79
2023/06/13 06:11:47;;;;;;;1.43;0.90;;;22.60;72.40;;;;;;4983322;28;20487;-78
2023/06/13 06:14:14;;;;;;;1.47;0.90;;;22.70;71.80;;;;;;4994354;28;20479;-75
2023/06/13 06:16:41;;;;;;;1.43;0.87;;;22.80;71.00;;;;;;4984995;28;20552;-80
2023/06/13 06:19:09;;;;;;;1.40;0.90;;;22.90;71.00;;;;;;5000510;28;20461;-78
2023/06/13 06:21:35;;;;;;;1.47;0.90;;;23.10;71.00;;;;;;4985858;28;20485;-75
2023/06/13 06:24:02;;;;;;;1.50;0.90;;;23.20;70.60;;;;;;4992848;28;20480;-78
2023/06/13 06:26:29;;;;;;;1.47;0.90;;;23.30;69.90;;;;;;4988690;28;20658;-77
2023/06/13 06:28:56;;;;;;;1.43;0.90;;;23.40;69.50;;;;;;4997808;28;20465;-76
2023/06/13 06:31:24;;;;;;;1.43;0.90;;;23.60;69.80;;;;;;4987909;28;20481;-80
2023/06/13 06:33:51;;;;;;;1.50;1.07;;;23.60;69.40;;;;;;4997659;28;20485;-78
2023/06/13 06:36:22;;;;;;;1.50;0.90;;;23.70;69.40;;;;;;4984678;28;20485;-75
2023/06/13 06:38:48;;;;;;;1.47;0.87;;;23.90;69.00;;;;;;4993656;28;20456;-78
2023/06/13 06:41:16;;;;;;;1.47;0.90;;;24.10;69.20;;;;;;4988580;28;20565;-82
2023/06/13 06:43:43;;;;;;;1.47;0.87;;;24.30;68.90;;;;;;4996744;28;20935;-77
2023/06/13 06:46:10;;;;;;;1.47;0.90;;;24.50;67.80;;;;;;4985188;28;21085;-78
2023/06/13 06:48:37;;;;;;;1.47;0.90;;;24.50;67.30;;;;;;4995964;28;20469;-77
2023/06/13 06:51:04;;;;;;;1.43;0.90;;;24.60;67.30;;;;;;4986503;28;20845;-77
2023/06/13 06:53:33;;;;;;;1.47;0.90;;;24.70;66.80;;;;;;4993962;28;20484;-79
2023/06/13 06:55:59;;;;;;;2.33;2.03;;;24.70;66.80;;;;;;4986926;28;20620;-78
2023/06/13 06:58:26;;;;;;;1.50;0.90;;;24.80;66.30;;;;;;4999538;28;20541;-76
2023/06/13 07:00:53;;;;;;;1.47;0.83;;;24.90;65.60;;;;;;4982120;28;20461;-77
2023/06/13 07:03:20;;;;;;;1.50;0.93;;;25.10;66.50;;;;;;4997641;28;21089;-75
2023/06/13 07:05:49;;;;;;;1.47;0.90;;;25.20;65.10;;;;;;4992211;28;20543;-77
2023/06/13 07:08:16;;;;;;;1.43;0.87;;;25.20;65.20;;;;;;4964598;28;20476;-77
2023/06/13 07:10:44;;;;;;;1.60;1.50;;;25.20;65.80;;;;;;4973459;28;20748;-80
2023/06/13 07:13:11;;;;;;;2.27;1.20;;;25.40;65.20;;;;;;4992376;28;20497;-78
2023/06/13 07:15:38;;;;;;;1.47;0.90;;;25.40;64.80;;;;;;4995793;28;20554;-78
2023/06/13 07:18:06;;;;;;;1.43;0.90;;;25.50;63.70;;;;;;4984936;28;20483;-78
2023/06/13 07:20:33;;;;;;;1.47;0.90;;;25.50;64.00;;;;;;4995726;28;20464;-75
2023/06/13 07:23:00;;;;;;;1.50;0.90;;;25.50;64.30;;;;;;4984909;28;20527;-75
2023/06/13 07:25:27;;;;;;;1.40;0.80;;;25.50;63.30;;;;;;4994944;28;20479;-76
2023/06/13 07:27:56;;;;;;;3.50;1.73;;;25.70;63.80;;;;;;4984066;28;20575;-75
2023/06/13 07:30:23;;;;;;;2.07;1.63;;;25.90;63.00;;;;;;4991518;28;20467;-75
2023/06/13 07:32:50;;;;;;;1.40;0.80;;;25.90;62.70;;;;;;4987540;28;20476;-76
2023/06/13 07:35:23;;;;;;;1.50;0.90;;;25.80;62.70;;;;;;4995394;28;20469;-75
2023/06/13 07:37:50;;;;;;;1.43;0.90;;;25.80;62.90;;;;;;4983901;28;20549;-77
2023/06/13 07:40:17;;;;;;;2.90;2.60;;;26.10;62.50;;;;;;4994181;28;20959;-77
2023/06/13 07:42:45;;;;;;;1.50;1.00;;;26.30;62.80;;;;;;4984497;28;20503;-78
2023/06/13 07:45:14;;;;;;;1.40;0.80;;;26.30;62.10;;;;;;4995675;28;20811;-74
2023/06/13 07:47:40;;;;;;;1.93;1.23;;;26.30;61.90;;;;;;4962236;28;20568;-77
2023/06/13 07:50:08;;;;;;;1.50;1.10;;;26.40;62.00;;;;;;4993207;28;20464;-76
2023/06/13 07:52:35;;;;;;;1.47;0.90;;;26.50;62.10;;;;;;4977803;28;20487;-77
2023/06/13 07:55:02;;;;;;;1.47;0.90;;;26.60;61.90;;;;;;4994305;28;20460;-77
2023/06/13 07:57:29;;;;;;;1.50;0.90;;;26.80;61.30;;;;;;4988361;28;20491;-78
2023/06/13 07:59:56;;;;;;;1.43;0.87;;;26.90;60.80;;;;;;4996193;28;20979;-78
2023/06/13 08:02:26;;;;;;;1.43;0.80;;;26.90;60.90;;;;;;4977306;28;20476;-77
2023/06/13 08:04:53;;;;;;;1.40;0.80;;;26.90;60.00;;;;;;4998104;28;20467;-77
2023/06/13 08:07:20;;;;;;;1.50;1.00;;;27.10;61.10;;;;;;4970593;28;20481;-78
2023/06/13 08:09:46;;;;;;;1.60;1.37;;;27.30;59.70;;;;;;4994552;28;20460;-78
2023/06/13 08:12:13;;;;;;;1.47;0.80;;;27.50;58.60;;;;;;4977309;28;20481;-77
2023/06/13 08:14:40;;;;;;;1.43;0.80;;;27.50;59.00;;;;;;4992504;28;20504;-82
2023/06/13 08:17:07;;;;;;;1.43;0.80;;;27.40;60.10;;;;;;4986570;28;20483;-80
2023/06/13 08:19:35;;;;;;;1.47;0.80;;;27.50;59.10;;;;;;4998416;28;20464;-76
2023/06/13 08:22:02;;;;;;;1.47;0.90;;;27.50;59.00;;;;;;4989507;28;20479;-75
2023/06/13 08:24:29;;;;;;;1.70;1.57;;;27.40;59.60;;;;;;5001335;28;20554;-82
2023/06/13 08:26:57;;;;;;;1.50;1.00;;;27.40;60.00;;;;;;4988594;28;20568;-83
2023/06/13 08:29:28;;;;;;;1.43;0.80;;;27.50;59.60;;;;;;5003488;28;20545;-77
2023/06/13 08:31:55;;;;;;;1.47;0.90;;;27.60;58.60;;;;;;4987107;28;20484;-78
2023/06/13 08:34:22;;;;;;;1.43;0.80;;;27.90;59.30;;;;;;4994938;28;20654;-76
2023/06/13 08:36:50;;;;;;;1.73;1.20;;;28.00;58.60;;;;;;4983727;28;20492;-78
2023/06/13 08:39:17;;;;;;;1.50;0.90;;;28.00;58.00;;;;;;4995896;28;20476;-77
2023/06/13 08:41:44;;;;;;;1.47;0.80;;;28.10;57.70;;;;;;4985324;28;20484;-76
2023/06/13 08:44:11;;;;;;;1.47;0.80;;;28.20;58.40;;;;;;4993720;28;20793;-79
2023/06/13 08:46:38;;;;;;;1.50;0.90;;;28.30;58.30;;;;;;4986609;28;20496;-77
2023/06/13 08:49:05;;;;;;;1.50;1.10;;;28.50;57.90;;;;;;4990732;28;20475;-79
2023/06/13 08:51:33;;;;;;;1.47;0.80;;;28.60;57.70;;;;;;4986657;28;20479;-77
2023/06/13 08:54:02;;;;;;;1.43;0.80;;;28.50;57.80;;;;;;4998050;28;20495;-81
2023/06/13 08:56:34;;;;;;;1.47;0.80;;;28.70;59.00;;;;;;4989223;28;20495;-80
2023/06/13 08:59:05;;;;;;;1.47;0.90;;;28.90;58.30;;;;;;4998729;28;20551;-78
2023/06/13 09:01:32;;;;;;;1.47;0.80;;;29.00;57.60;;;;;;4985842;28;20940;-77
2023/06/13 09:04:01;;;;;;;1.47;0.80;;;29.20;57.00;;;;;;4991588;28;20523;-79
2023/06/13 09:06:31;;;;;;;1.47;0.80;;;29.30;57.10;;;;;;4980607;28;20485;-77
2023/06/13 09:08:59;;;;;;;1.40;0.90;;;29.40;56.70;;;;;;4988566;28;20471;-80
2023/06/13 09:11:29;;;;;;;1.47;0.80;;;29.30;56.50;;;;;;4989249;28;20489;-77
2023/06/13 09:13:59;;;;;;;1.50;0.90;;;29.50;56.60;;;;;;5001111;28;20477;-78
2023/06/13 09:16:27;;;;;;;1.50;0.80;;;29.50;55.70;;;;;;4988251;28;20479;-78
2023/06/13 09:18:55;;;;;;;1.50;0.90;;;29.40;56.80;;;;;;5006073;28;20816;-82
2023/06/13 09:21:22;;;;;;;2.43;1.57;;;29.60;56.80;;;;;;4986892;28;21049;-77
2023/06/13 09:23:49;;;;;;;1.70;1.47;;;29.60;55.50;;;;;;4987203;28;21029;-75
2023/06/13 09:26:17;;;;;;;1.47;0.83;;;29.60;56.60;;;;;;4996224;28;20476;-76
2023/06/13 09:28:47;;;;;;;1.47;0.80;;;29.60;56.00;;;;;;4998931;28;20490;-75
2023/06/13 09:31:14;;;;;;;1.47;0.80;;;29.60;55.40;;;;;;4985872;28;20484;-77
2023/06/13 09:33:45;;;;;;;1.47;0.83;;;29.60;56.60;;;;;;5002266;28;20488;-76
2023/06/13 09:36:13;;;;;;;1.47;0.80;;;29.70;55.70;;;;;;4985523;28;20795;-78
2023/06/13 09:38:41;;;;;;;1.50;1.00;;;29.60;55.70;;;;;;5002459;28;20475;-78
2023/06/13 09:41:09;;;;;;;1.40;0.80;;;29.90;56.30;;;;;;4979578;28;20476;-81
2023/06/13 09:43:38;;;;;;;1.47;0.80;;;30.00;55.20;;;;;;4996151;28;20476;-78
2023/06/13 09:46:07;;;;;;;1.40;0.80;;;30.00;55.60;;;;;;4984329;28;20943;-77
2023/06/13 09:48:34;;;;;;;1.50;0.90;;;30.20;55.80;;;;;;4994428;28;20461;-78
2023/06/13 09:51:03;;;;;;;1.47;0.80;;;30.30;55.70;;;;;;4987891;28;20733;-78
2023/06/13 09:53:31;;;;;;;1.43;0.80;;;30.40;55.50;;;;;;4997731;28;20316;-79
2023/06/13 09:55:58;;;;;;;1.40;0.80;;;30.30;55.30;;;;;;4984090;28;20583;-77
2023/06/13 09:58:25;;;;;;;1.70;1.30;;;30.40;55.40;;;;;;4992271;28;20229;-78
2023/06/13 10:00:59;;;;;;;1.40;0.80;;;30.70;55.80;;;;;;4983647;28;20691;-74
2023/06/13 10:03:28;;;;;;;1.47;0.80;;;30.80;54.70;;;;;;4990673;28;20272;-77
2023/06/13 10:05:56;;;;;;;1.43;0.80;;;30.90;55.60;;;;;;4987492;28;20205;-77
2023/06/13 10:08:24;;;;;;;1.47;0.80;;;31.10;54.30;;;;;;5004969;28;20256;-77
2023/06/13 10:10:51;;;;;;;1.40;0.80;;;31.40;54.70;;;;;;4991751;28;20237;-77
2023/06/13 10:13:25;;;;;;;1.43;0.80;;;31.40;53.50;;;;;;5003633;28;20233;-76
2023/06/13 10:15:54;;;;;;;1.40;0.83;;;31.50;53.80;;;;;;4994406;28;20249;-75
2023/06/13 10:18:25;;;;;;;1.43;0.80;;;31.40;52.70;;;;;;4999538;28;20723;-78
2023/06/13 10:20:57;;;;;;;1.43;0.80;;;31.10;53.00;;;;;;4986192;28;20660;-79
2023/06/13 10:23:28;;;;;;;1.40;0.83;;;30.90;53.60;;;;;;5001720;28;20335;-75
2023/06/13 10:25:58;;;;;;;1.40;0.80;;;31.10;54.30;;;;;;4983710;28;20201;-77
2023/06/13 10:28:36;;;;;;;1.40;0.80;;;31.10;54.00;;;;;;4994258;28;20202;-76
2023/06/13 10:31:13;;;;;;;1.40;0.80;;;31.10;53.10;;;;;;4987096;28;20220;-80
2023/06/13 10:34:00;;;;;;;1.40;0.80;;;31.50;53.20;;;;;;4992592;28;20296;-77
2023/06/13 10:36:43;;;;;;;1.43;0.90;;;31.70;51.80;;;;;;4985613;28;20304;-77
2023/06/13 10:39:40;;;;;;;1.40;0.80;;;31.60;52.70;;;;;;4998307;28;20205;-78
2023/06/13 10:42:19;;;;;;;1.40;0.80;;;31.50;51.30;;;;;;4982177;28;20225;-77
2023/06/13 10:44:56;;;;;;;1.40;0.80;;;31.40;51.80;;;;;;4997726;28;20208;-77
2023/06/13 10:47:24;;;;;;;1.40;0.80;;;31.50;52.40;;;;;;4970296;28;20225;-77
2023/06/13 10:49:53;;;;;;;1.40;0.80;;;31.90;52.10;;;;;;4993008;28;20232;-77
2023/06/13 10:52:23;;;;;;;1.43;0.80;;;32.10;50.60;;;;;;4988402;28;20230;-76
2023/06/13 10:54:53;;;;;;;1.40;0.80;;;32.00;51.10;;;;;;4994910;28;20539;-76
2023/06/13 10:57:20;;;;;;;1.40;0.80;;;31.90;52.30;;;;;;4981228;28;20691;-76
2023/06/13 10:59:49;;;;;;;1.40;0.80;;;31.80;51.60;;;;;;4998551;28;20591;-76
2023/06/13 11:02:17;;;;;;;1.40;0.90;;;31.80;51.50;;;;;;4982574;28;20441;-76
2023/06/13 11:04:50;;;;;;;1.40;0.80;;;31.70;51.90;;;;;;4992551;28;20202;-77
2023/06/13 11:07:28;;;;;;;1.40;0.80;;;31.70;51.40;;;;;;4980115;28;20639;-76
2023/06/13 11:10:11;;;;;;;1.40;0.80;;;31.90;51.80;;;;;;4998137;28;20215;-77
2023/06/13 11:12:38;;;;;;;1.40;0.80;;;32.40;51.50;;;;;;4969429;28;20264;-78
2023/06/13 11:15:19;;;;;;;1.45;0.90;;;32.70;51.40;;;;;;4995381;28;20216;-77
2023/06/13 11:18:22;;;;;;;1.42;0.80;;;32.80;50.10;;;;;;4983738;28;20326;-79
2023/06/13 11:20:49;;;;;;;1.40;0.90;;;32.70;51.30;;;;;;4984039;28;20243;-77
2023/06/13 11:23:19;;;;;;;1.40;0.80;;;32.90;51.20;;;;;;4995751;28;20217;-78
2023/06/13 11:25:46;;;;;;;1.45;0.93;;;33.20;50.20;;;;;;4996431;28;20201;-78
2023/06/13 11:28:14;;;;;;;1.40;0.80;;;33.00;49.90;;;;;;4964603;28;20233;-77
2023/06/13 11:30:43;;;;;;;1.40;0.80;;;32.60;49.70;;;;;;4992195;28;20684;-76
2023/06/13 11:33:10;;;;;;;1.40;0.80;;;32.80;52.00;;;;;;4983464;28;20746;-76
2023/06/13 11:35:38;;;;;;;1.40;0.80;;;33.10;50.50;;;;;;4995762;28;20205;-80
2023/06/13 11:38:10;;;;;;;1.50;1.00;;;33.40;50.50;;;;;;4984770;28;20299;-78
2023/06/13 11:40:40;;;;;;;1.40;0.80;;;33.70;50.70;;;;;;4998670;28;20283;-75
2023/06/13 11:43:07;;;;;;;1.40;1.00;;;34.00;50.30;;;;;;4978109;28;20301;-77
2023/06/13 11:45:36;;;;;;;1.40;0.80;;;33.80;48.90;;;;;;5003373;28;20209;-77
2023/06/13 11:48:03;;;;;;;1.40;0.80;;;33.20;49.20;;;;;;4971590;28;20230;-79
2023/06/13 11:50:32;;;;;;;1.40;0.80;;;32.70;49.40;;;;;;5000554;28;20247;-79
2023/06/13 11:53:05;;;;;;;1.40;1.00;;;32.80;50.80;;;;;;4994956;28;20481;-76
2023/06/13 11:55:32;;;;;;;1.80;1.70;;;33.00;49.30;;;;;;5008070;28;20204;-77
2023/06/13 11:58:01;;;;;;;1.40;0.80;;;33.10;49.50;;;;;;4964396;28;20293;-79
2023/06/13 12:00:30;;;;;;;1.60;1.25;;;33.10;49.70;;;;;;4999290;28;20304;-78
2023/06/13 12:02:59;;;;;;;2.13;1.25;;;33.00;50.30;;;;;;4981733;28;20217;-78
2023/06/13 12:05:26;;;;;;;1.40;0.80;;;32.70;50.20;;;;;;4998277;28;20216;-77
2023/06/13 12:07:53;;;;;;;1.40;0.80;;;32.60;51.20;;;;;;4982647;28;20225;-76
2023/06/13 12:10:21;;;;;;;1.40;0.80;;;32.80;50.40;;;;;;4997957;28;20236;-76
2023/06/13 12:12:57;;;;;;;1.40;0.80;;;33.10;50.40;;;;;;4985040;28;20734;-76
2023/06/13 12:15:26;;;;;;;1.38;0.80;;;33.20;49.10;;;;;;4998556;28;20201;-77
2023/06/13 12:17:59;;;;;;;1.40;0.80;;;33.40;49.60;;;;;;4982457;28;20229;-79
2023/06/13 12:20:26;;;;;;;1.58;1.20;;;33.60;48.90;;;;;;4995593;28;20208;-77
2023/06/13 12:22:57;;;;;;;1.40;0.90;;;33.50;49.30;;;;;;4981144;28;20754;-80
2023/06/13 12:25:27;;;;;;;1.40;0.80;;;33.60;49.10;;;;;;4993215;28;20213;-74
2023/06/13 12:27:55;;;;;;;1.40;0.80;;;33.40;49.00;;;;;;4987062;28;20264;-81
2023/06/13 12:30:23;;;;;;;1.40;1.10;;;33.30;48.50;;;;;;4998217;28;20227;-76
2023/06/13 12:32:56;;;;;;;1.50;1.13;;;33.00;47.80;;;;;;4974876;28;20252;-82
2023/06/13 12:35:25;;;;;;;1.40;0.80;;;33.00;48.70;;;;;;5001337;28;20779;-80
2023/06/13 12:37:58;;;;;;;1.40;0.80;;;33.30;49.70;;;;;;4977978;28;20235;-77
2023/06/13 12:40:31;;;;;;;1.40;0.80;;;33.70;49.00;;;;;;5001975;28;20440;-77
2023/06/13 12:43:00;;;;;;;1.40;0.80;;;34.00;48.80;;;;;;4985887;28;20275;-79
2023/06/13 12:45:27;;;;;;;1.40;0.80;;;34.10;47.00;;;;;;4997579;28;20253;-78
2023/06/13 12:47:56;;;;;;;1.40;0.80;;;34.20;46.50;;;;;;4975753;28;20244;-77
2023/06/13 12:50:24;;;;;;;1.40;0.80;;;33.90;47.30;;;;;;5002137;28;20231;-76
2023/06/13 12:53:01;;;;;;;1.40;0.80;;;33.80;46.60;;;;;;4985756;28;20366;-77
2023/06/13 12:55:29;;;;;;;1.40;0.80;;;33.70;47.30;;;;;;5003095;28;20228;-78